createdAt,value
2017-11-15T00:00:52.066Z,20.90
2017-11-15T00:03:20.343Z,18.97
2017-11-15T00:05:48.646Z,18.60
2017-11-15T00:08:16.894Z,19.27
2017-11-15T00:10:45.239Z,20.03
2017-11-15T00:13:13.569Z,19.20
2017-11-15T00:15:41.836Z,19.47
2017-11-15T00:18:10.205Z,18.40
2017-11-15T00:20:38.540Z,20.30
2017-11-15T00:23:06.840Z,19.80
2017-11-15T00:25:35.135Z,16.67
2017-11-15T00:28:03.501Z,20.00
2017-11-15T00:30:31.929Z,18.40
2017-11-15T00:33:00.984Z,16.90
2017-11-15T00:35:29.323Z,15.13
2017-11-15T00:37:57.580Z,13.07
2017-11-15T00:40:26.634Z,13.13
2017-11-15T00:42:54.968Z,13.87
2017-11-15T00:45:23.258Z,14.00
2017-11-15T00:47:51.535Z,13.30
2017-11-15T00:50:19.864Z,14.47
2017-11-15T00:52:48.124Z,14.50
2017-11-15T00:55:16.394Z,14.40
2017-11-15T00:57:44.692Z,15.10
2017-11-15T01:00:12.945Z,13.60
2017-11-15T01:02:41.234Z,12.90
2017-11-15T01:05:09.565Z,12.37
2017-11-15T01:07:37.839Z,12.43
2017-11-15T01:10:06.936Z,13.57
2017-11-15T01:12:35.237Z,13.57
2017-11-15T01:15:03.511Z,13.23
2017-11-15T01:17:31.787Z,12.17
2017-11-15T01:20:00.425Z,14.97
2017-11-15T01:22:28.737Z,13.90
2017-11-15T01:24:57.006Z,14.57
2017-11-15T01:27:25.301Z,14.30
2017-11-15T01:29:53.584Z,13.33
2017-11-15T01:32:21.922Z,13.83
2017-11-15T01:34:50.237Z,12.80
2017-11-15T01:37:18.516Z,13.30
2017-11-15T01:39:46.811Z,13.10
2017-11-15T01:42:15.107Z,13.70
2017-11-15T01:44:44.153Z,14.50
2017-11-15T01:47:12.409Z,16.00
2017-11-15T01:49:40.705Z,15.10
2017-11-15T01:52:08.969Z,14.60
2017-11-15T01:54:37.239Z,14.80
2017-11-15T01:57:05.560Z,12.60
2017-11-15T01:59:33.907Z,14.10
2017-11-15T02:02:02.234Z,15.00
2017-11-15T02:04:30.599Z,14.77
2017-11-15T02:06:58.924Z,14.00
2017-11-15T02:09:27.231Z,15.60
2017-11-15T02:11:55.539Z,12.57
2017-11-15T02:14:24.644Z,13.77
2017-11-15T02:16:52.936Z,12.90
2017-11-15T02:19:21.227Z,11.33
2017-11-15T02:21:49.524Z,12.47
2017-11-15T02:24:17.792Z,12.67
2017-11-15T02:26:46.082Z,11.57
2017-11-15T02:29:14.382Z,12.30
2017-11-15T02:31:43.443Z,14.87
2017-11-15T02:34:11.742Z,13.03
2017-11-15T02:36:39.977Z,12.90
2017-11-15T02:39:08.218Z,10.07
2017-11-15T02:41:36.536Z,11.17
2017-11-15T02:44:04.802Z,12.83
2017-11-15T02:46:33.161Z,10.70
2017-11-15T02:49:01.570Z,11.73
2017-11-15T02:51:29.865Z,10.23
2017-11-15T02:53:58.140Z,12.00
2017-11-15T02:56:26.500Z,11.50
2017-11-15T02:58:54.792Z,11.10
2017-11-15T03:01:23.035Z,11.07
2017-11-15T03:03:51.312Z,11.90
2017-11-15T03:06:20.422Z,11.60
2017-11-15T03:08:48.744Z,11.90
2017-11-15T03:11:17.086Z,11.27
2017-11-15T03:13:45.561Z,12.70
2017-11-15T03:16:13.813Z,11.73
2017-11-15T03:18:42.086Z,11.23
2017-11-15T03:21:15.293Z,10.97
2017-11-15T03:23:43.588Z,16.83
2017-11-15T03:26:11.896Z,13.77
2017-11-15T03:28:40.986Z,15.57
2017-11-15T03:31:09.311Z,14.93
2017-11-15T03:33:37.587Z,15.60
2017-11-15T03:36:05.969Z,14.80
2017-11-15T03:38:34.236Z,15.60
2017-11-15T03:41:02.481Z,18.13
2017-11-15T03:43:31.583Z,16.00
2017-11-15T03:45:59.832Z,17.37
2017-11-15T03:48:28.111Z,16.47
2017-11-15T03:50:56.460Z,16.10
2017-11-15T03:53:24.725Z,18.80
2017-11-15T03:55:53.053Z,15.90
2017-11-15T03:58:21.511Z,14.40
2017-11-15T04:00:49.793Z,16.57
2017-11-15T04:03:18.074Z,18.33
2017-11-15T04:05:46.535Z,23.57
2017-11-15T04:08:15.718Z,17.90
2017-11-15T04:10:44.045Z,19.40
2017-11-15T04:13:13.153Z,19.20
2017-11-15T04:15:41.394Z,28.20
2017-11-15T04:18:10.405Z,25.33
2017-11-15T04:20:39.465Z,20.27
2017-11-15T04:23:07.769Z,18.27
2017-11-15T04:25:36.047Z,20.13
2017-11-15T04:28:05.123Z,17.00
2017-11-15T04:30:34.220Z,19.80
2017-11-15T04:33:03.265Z,18.60
2017-11-15T04:35:31.599Z,15.53
2017-11-15T04:38:00.626Z,16.90
2017-11-15T04:40:28.916Z,12.23
2017-11-15T04:42:58.057Z,17.33
2017-11-15T04:45:26.339Z,17.90
2017-11-15T04:47:54.637Z,17.40
2017-11-15T04:50:22.950Z,17.13
2017-11-15T04:52:51.203Z,18.37
2017-11-15T04:55:20.199Z,19.27
2017-11-15T04:57:48.520Z,17.73
2017-11-15T05:00:16.816Z,17.20
2017-11-15T05:02:45.877Z,18.17
2017-11-15T05:05:14.212Z,18.23
2017-11-15T05:07:42.498Z,15.63
2017-11-15T05:10:11.622Z,17.10
2017-11-15T05:12:39.928Z,17.93
2017-11-15T05:15:08.235Z,18.17
2017-11-15T05:17:37.389Z,18.13
2017-11-15T05:20:06.241Z,18.50
2017-11-15T05:22:34.849Z,17.97
2017-11-15T05:25:03.986Z,16.73
2017-11-15T05:27:41.733Z,19.57
2017-11-15T05:30:10.200Z,21.00
2017-11-15T05:32:38.494Z,19.47
2017-11-15T05:35:06.756Z,20.60
2017-11-15T05:37:35.170Z,21.20
2017-11-15T05:40:04.201Z,20.33
2017-11-15T05:42:32.445Z,20.40
2017-11-15T05:45:00.756Z,15.80
2017-11-15T05:47:28.988Z,17.77
2017-11-15T05:49:57.242Z,21.90
2017-11-15T05:52:25.663Z,20.97
2017-11-15T05:54:54.676Z,20.10
2017-11-15T05:57:22.929Z,20.03
2017-11-15T05:59:52.054Z,20.57
2017-11-15T06:02:20.365Z,21.60
2017-11-15T06:04:48.617Z,21.53
2017-11-15T06:07:16.925Z,21.23
2017-11-15T06:09:45.191Z,21.17
2017-11-15T06:12:13.553Z,22.10
2017-11-15T06:14:41.964Z,24.40
2017-11-15T06:17:10.218Z,21.47
2017-11-15T06:19:38.626Z,23.40
2017-11-15T06:22:07.793Z,26.33
2017-11-15T06:24:36.202Z,20.93
2017-11-15T06:27:05.164Z,14.77
2017-11-15T06:29:33.618Z,14.77
2017-11-15T06:32:01.947Z,23.63
2017-11-15T06:34:32.619Z,20.60
2017-11-15T06:37:01.902Z,18.40
2017-11-15T06:39:30.121Z,20.30
2017-11-15T06:41:58.379Z,12.90
2017-11-15T06:44:26.807Z,14.93
2017-11-15T06:46:55.441Z,15.13
2017-11-15T06:49:28.243Z,14.80
2017-11-15T06:52:07.647Z,11.23
2017-11-15T06:54:37.067Z,16.03
2017-11-15T06:57:05.656Z,14.23
2017-11-15T06:59:34.020Z,8.20
2017-11-15T07:02:04.069Z,23.17
2017-11-15T07:04:33.713Z,19.00
2017-11-15T07:07:03.564Z,24.73
2017-11-15T07:09:33.496Z,24.00
2017-11-15T07:12:02.590Z,17.53
2017-11-15T07:14:31.388Z,7.63
2017-11-15T07:16:59.673Z,8.10
2017-11-15T07:19:30.373Z,8.80
2017-11-15T07:21:58.878Z,9.07
2017-11-15T07:24:31.590Z,15.57
2017-11-15T07:27:00.653Z,19.73
2017-11-15T07:29:29.769Z,10.77
2017-11-15T07:32:00.389Z,13.60
2017-11-15T07:34:33.398Z,10.60
2017-11-15T07:37:03.024Z,9.00
2017-11-15T07:39:34.624Z,11.80
2017-11-15T07:42:03.225Z,20.40
2017-11-15T07:44:34.725Z,16.20
2017-11-15T07:47:03.893Z,18.73
2017-11-15T07:49:33.817Z,11.57
2017-11-15T07:52:03.239Z,9.63
2017-11-15T07:54:33.494Z,16.07
2017-11-15T07:57:02.346Z,15.10
2017-11-15T07:59:31.275Z,17.40
2017-11-15T08:02:00.737Z,19.00
2017-11-15T08:04:30.070Z,17.50
2017-11-15T08:06:59.220Z,11.40
2017-11-15T08:09:28.534Z,20.83
2017-11-15T08:11:58.307Z,9.83
2017-11-15T08:14:27.287Z,10.40
2017-11-15T08:16:55.598Z,18.20
2017-11-15T08:19:25.516Z,14.07
2017-11-15T08:21:55.191Z,21.83
2017-11-15T08:24:24.520Z,21.30
2017-11-15T08:26:53.076Z,17.47
2017-11-15T08:29:25.831Z,21.67
2017-11-15T08:31:55.694Z,22.23
2017-11-15T08:34:27.026Z,20.93
2017-11-15T08:36:56.512Z,20.40
2017-11-15T08:39:26.162Z,16.20
2017-11-15T08:41:55.077Z,23.23
2017-11-15T08:44:23.778Z,12.70
2017-11-15T08:46:52.084Z,24.50
2017-11-15T08:49:34.668Z,23.00
2017-11-15T08:52:06.656Z,20.90
2017-11-15T08:54:36.277Z,14.63
2017-11-15T08:57:05.388Z,13.97
2017-11-15T08:59:35.861Z,17.70
2017-11-15T09:02:07.527Z,15.90
2017-11-15T09:04:42.472Z,21.47
2017-11-15T09:07:11.499Z,24.00
2017-11-15T09:09:41.031Z,20.33
2017-11-15T09:12:10.361Z,20.73
2017-11-15T09:14:38.925Z,22.27
2017-11-15T09:17:07.708Z,15.20
2017-11-15T09:19:37.579Z,21.17
2017-11-15T09:22:07.389Z,22.87
2017-11-15T09:24:36.645Z,20.73
2017-11-15T09:27:04.950Z,17.20
2017-11-15T09:29:33.408Z,22.07
2017-11-15T09:32:01.687Z,20.00
2017-11-15T09:34:30.165Z,22.83
2017-11-15T09:36:58.764Z,19.83
2017-11-15T09:39:27.419Z,21.80
2017-11-15T09:41:55.852Z,19.53
2017-11-15T09:44:26.881Z,19.63
2017-11-15T09:46:56.017Z,20.33
2017-11-15T09:49:24.570Z,19.20
2017-11-15T09:51:55.136Z,19.90
2017-11-15T09:54:23.662Z,17.63
2017-11-15T09:56:52.660Z,10.67
2017-11-15T09:59:21.369Z,14.47
2017-11-15T10:01:50.140Z,17.33
2017-11-15T10:04:18.796Z,18.30
2017-11-15T10:06:47.432Z,14.20
2017-11-15T10:09:17.648Z,15.97
2017-11-15T10:11:46.351Z,11.20
2017-11-15T10:14:15.416Z,15.60
2017-11-15T10:16:44.700Z,10.70
2017-11-15T10:19:13.873Z,13.43
2017-11-15T10:21:42.606Z,14.27
2017-11-15T10:24:11.881Z,12.80
2017-11-15T10:26:40.519Z,11.73
2017-11-15T10:29:10.494Z,9.83
2017-11-15T10:31:39.579Z,10.53
2017-11-15T10:34:08.831Z,10.97
2017-11-15T10:36:39.674Z,14.70
2017-11-15T10:39:09.206Z,14.63
2017-11-15T10:41:38.566Z,8.33
2017-11-15T10:44:08.589Z,8.17
2017-11-15T10:46:37.371Z,9.50
2017-11-15T10:49:05.644Z,13.20
2017-11-15T10:51:34.881Z,14.43
2017-11-15T10:54:03.806Z,15.03
2017-11-15T10:56:32.791Z,15.37
2017-11-15T10:59:01.189Z,10.10
2017-11-15T11:01:29.591Z,13.20
2017-11-15T11:03:59.152Z,12.30
2017-11-15T11:06:29.526Z,14.73
2017-11-15T11:08:59.170Z,13.50
2017-11-15T11:11:28.048Z,10.90
2017-11-15T11:13:57.653Z,12.30
2017-11-15T11:16:26.004Z,12.00
2017-11-15T11:18:54.441Z,12.10
2017-11-15T11:21:23.550Z,10.87
2017-11-15T11:23:53.696Z,13.23
2017-11-15T11:26:22.543Z,13.23
2017-11-15T11:28:52.002Z,13.27
2017-11-15T11:31:21.414Z,11.97
2017-11-15T11:33:49.995Z,12.83
2017-11-15T11:36:19.329Z,15.27
2017-11-15T11:38:49.367Z,13.80
2017-11-15T11:41:19.275Z,15.50
2017-11-15T11:43:48.989Z,13.53
2017-11-15T11:46:19.684Z,9.53
2017-11-15T11:48:49.458Z,16.20
2017-11-15T11:51:17.747Z,18.83
2017-11-15T11:53:46.231Z,14.43
2017-11-15T11:56:14.867Z,9.23
2017-11-15T11:58:47.496Z,13.47
2017-11-15T12:01:16.516Z,15.53
2017-11-15T12:03:46.385Z,10.67
2017-11-15T12:06:16.037Z,17.10
2017-11-15T12:08:44.351Z,18.60
2017-11-15T12:11:13.148Z,14.63
2017-11-15T12:13:43.699Z,17.30
2017-11-15T12:16:14.236Z,16.30
2017-11-15T12:18:43.320Z,12.90
2017-11-15T12:21:11.797Z,15.43
2017-11-15T12:23:41.606Z,8.67
2017-11-15T12:26:10.815Z,15.13
2017-11-15T12:28:40.121Z,12.80
2017-11-15T12:31:09.830Z,14.87
2017-11-15T12:33:38.345Z,17.43
2017-11-15T12:36:06.790Z,11.73
2017-11-15T12:38:35.387Z,11.70
2017-11-15T12:41:04.731Z,17.90
2017-11-15T12:43:34.208Z,15.80
2017-11-15T12:46:02.973Z,16.33
2017-11-15T12:48:31.760Z,9.90
2017-11-15T12:51:00.289Z,14.60
2017-11-15T12:53:29.492Z,15.43
2017-11-15T12:55:57.877Z,14.60
2017-11-15T12:58:26.406Z,13.63
2017-11-15T13:00:55.065Z,15.47
2017-11-15T13:03:24.512Z,14.17
2017-11-15T13:05:53.139Z,11.50
2017-11-15T13:08:22.061Z,15.07
2017-11-15T13:10:51.643Z,11.17
2017-11-15T13:13:23.349Z,14.90
2017-11-15T13:15:56.134Z,15.20
2017-11-15T13:18:33.702Z,15.30
2017-11-15T13:21:03.425Z,15.23
2017-11-15T13:23:32.256Z,17.80
2017-11-15T13:26:00.837Z,14.83
2017-11-15T13:28:30.335Z,12.50
2017-11-15T13:30:59.404Z,16.73
2017-11-15T13:33:28.914Z,17.40
2017-11-15T13:35:58.874Z,18.30
2017-11-15T13:38:29.427Z,17.20
2017-11-15T13:41:08.304Z,18.67
2017-11-15T13:43:37.857Z,21.03
2017-11-15T13:46:10.364Z,17.13
2017-11-15T13:48:40.583Z,16.83
2017-11-15T13:51:11.098Z,16.20
2017-11-15T13:53:40.164Z,12.87
2017-11-15T13:56:09.022Z,18.07
2017-11-15T13:58:38.752Z,17.93
2017-11-15T14:01:07.060Z,15.90
2017-11-15T14:03:39.717Z,22.20
2017-11-15T14:06:08.579Z,16.37
2017-11-15T14:08:38.913Z,12.90
2017-11-15T14:11:11.220Z,12.43
2017-11-15T14:13:41.939Z,12.50
2017-11-15T14:16:10.481Z,12.33
2017-11-15T14:18:40.113Z,13.97
2017-11-15T14:21:09.682Z,14.60
2017-11-15T14:23:39.861Z,15.63
2017-11-15T14:26:09.186Z,13.37
2017-11-15T14:28:38.377Z,16.60
2017-11-15T14:31:08.962Z,19.60
2017-11-15T14:33:37.261Z,20.53
2017-11-15T14:36:05.945Z,7.30
2017-11-15T14:38:34.679Z,6.40
2017-11-15T14:41:03.783Z,6.30
2017-11-15T14:43:32.407Z,7.97
2017-11-15T14:46:00.965Z,7.70
2017-11-15T14:48:29.783Z,8.70
2017-11-15T14:50:59.027Z,7.90
2017-11-15T14:53:30.132Z,10.07
2017-11-15T14:55:58.741Z,8.93
2017-11-15T14:58:27.084Z,9.53
2017-11-15T15:00:55.714Z,9.27
2017-11-15T15:03:25.713Z,8.47
2017-11-15T15:05:54.867Z,8.10
2017-11-15T15:08:25.092Z,8.50
2017-11-15T15:10:53.465Z,8.20
2017-11-15T15:13:22.964Z,7.47
2017-11-15T15:15:51.700Z,9.53
2017-11-15T15:18:20.398Z,8.30
2017-11-15T15:20:50.920Z,7.60
2017-11-15T15:23:20.641Z,7.50
2017-11-15T15:25:48.925Z,7.70
2017-11-15T15:28:18.173Z,7.93
2017-11-15T15:30:46.878Z,7.87
2017-11-15T15:33:18.740Z,8.50
2017-11-15T15:35:47.076Z,11.27
2017-11-15T15:38:16.529Z,10.23
2017-11-15T15:40:45.881Z,21.23
2017-11-15T15:43:14.513Z,19.30
2017-11-15T15:45:42.833Z,20.43
2017-11-15T15:48:11.495Z,9.17
2017-11-15T15:50:40.923Z,10.53
2017-11-15T15:53:10.354Z,8.27
2017-11-15T15:55:38.711Z,12.30
2017-11-15T15:58:07.026Z,20.13
2017-11-15T16:00:35.823Z,33.37
2017-11-15T16:03:05.087Z,38.43
2017-11-15T16:05:34.092Z,40.13
2017-11-15T16:08:02.417Z,38.13
2017-11-15T16:10:30.855Z,39.33
2017-11-15T16:12:59.279Z,12.73
2017-11-15T16:15:27.738Z,17.40
2017-11-15T16:17:56.806Z,35.30
2017-11-15T16:20:25.537Z,31.17
2017-11-15T16:22:54.228Z,11.00
2017-11-15T16:25:22.735Z,13.30
2017-11-15T16:27:51.211Z,12.07
2017-11-15T16:30:19.677Z,30.40
2017-11-15T16:32:48.242Z,16.57
2017-11-15T16:35:17.603Z,31.83
2017-11-15T16:37:47.027Z,46.43
2017-11-15T16:40:16.162Z,40.83
2017-11-15T16:42:45.306Z,47.60
2017-11-15T16:45:15.326Z,36.33
2017-11-15T16:47:45.384Z,27.33
2017-11-15T16:50:27.162Z,39.50
2017-11-15T16:52:58.391Z,21.13
2017-11-15T16:55:28.887Z,16.07
2017-11-15T16:57:57.496Z,15.63
2017-11-15T17:00:27.096Z,16.73
2017-11-15T17:02:56.788Z,41.50
2017-11-15T17:05:26.664Z,18.60
2017-11-15T17:07:55.466Z,20.40
2017-11-15T17:10:25.278Z,19.67
2017-11-15T17:12:53.853Z,20.70
2017-11-15T17:15:22.337Z,19.60
2017-11-15T17:17:51.327Z,22.17
2017-11-15T17:20:20.437Z,18.10
2017-11-15T17:22:50.047Z,18.70
2017-11-15T17:25:22.472Z,19.33
2017-11-15T17:27:53.094Z,19.83
2017-11-15T17:30:23.472Z,16.53
2017-11-15T17:33:03.667Z,19.97
2017-11-15T17:35:32.069Z,27.30
2017-11-15T17:38:01.166Z,42.17
2017-11-15T17:40:29.541Z,46.70
2017-11-15T17:42:58.074Z,73.50
2017-11-15T17:45:26.401Z,85.43
2017-11-15T17:47:54.709Z,79.23
2017-11-15T17:50:23.061Z,32.10
2017-11-15T17:52:51.343Z,31.83
2017-11-15T17:55:19.635Z,80.57
2017-11-15T17:57:48.035Z,79.37
2017-11-15T18:00:16.322Z,42.33
2017-11-15T18:02:44.600Z,62.97
2017-11-15T18:05:12.902Z,27.27
2017-11-15T18:07:42.045Z,56.70
2017-11-15T18:10:10.354Z,57.43
2017-11-15T18:12:39.508Z,84.57
2017-11-15T18:15:07.791Z,71.07
2017-11-15T18:17:36.061Z,59.40
2017-11-15T18:20:04.656Z,32.00
2017-11-15T18:22:32.962Z,33.67
2017-11-15T18:25:01.300Z,33.70
2017-11-15T18:27:29.636Z,32.10
2017-11-15T18:29:57.900Z,39.57
2017-11-15T18:32:26.203Z,34.80
2017-11-15T18:34:54.580Z,34.33
2017-11-15T18:37:22.905Z,31.90
2017-11-15T18:39:51.188Z,37.67
2017-11-15T18:42:19.498Z,37.50
2017-11-15T18:44:48.611Z,33.47
2017-11-15T18:47:16.953Z,34.07
2017-11-15T18:49:45.316Z,32.17
2017-11-15T18:52:13.633Z,34.80
2017-11-15T18:54:42.091Z,39.90
2017-11-15T18:57:11.391Z,32.90
2017-11-15T18:59:39.752Z,34.67
2017-11-15T19:02:08.161Z,34.10
2017-11-15T19:04:36.711Z,30.90
2017-11-15T19:07:05.148Z,37.63
2017-11-15T19:09:33.452Z,31.97
2017-11-15T19:12:01.790Z,55.83
2017-11-15T19:14:30.099Z,33.90
2017-11-15T19:16:58.456Z,31.50
2017-11-15T19:19:26.766Z,35.77
2017-11-15T19:21:55.140Z,48.37
2017-11-15T19:24:23.497Z,56.17
2017-11-15T19:26:52.609Z,54.50
2017-11-15T19:29:20.937Z,35.00
2017-11-15T19:31:49.370Z,55.10
2017-11-15T19:34:17.740Z,53.77
2017-11-15T19:36:46.097Z,32.37
2017-11-15T19:39:14.657Z,30.43
2017-11-15T19:41:43.795Z,30.13
2017-11-15T19:44:12.366Z,32.13
2017-11-15T19:46:40.697Z,41.57
2017-11-15T19:49:09.888Z,49.93
2017-11-15T19:51:39.065Z,40.97
2017-11-15T19:54:07.554Z,37.00
2017-11-15T19:56:36.022Z,49.03
2017-11-15T19:59:04.363Z,49.13
2017-11-15T20:01:32.636Z,38.80
2017-11-15T20:04:01.155Z,33.33
2017-11-15T20:06:33.320Z,39.67
2017-11-15T20:09:01.669Z,35.90
2017-11-15T20:11:30.052Z,36.23
2017-11-15T20:14:00.465Z,34.67
2017-11-15T20:16:28.907Z,36.53
2017-11-15T20:18:57.242Z,35.97
2017-11-15T20:21:25.956Z,38.20
2017-11-15T20:23:54.895Z,45.43
2017-11-15T20:26:24.962Z,34.73
2017-11-15T20:28:55.072Z,33.03
2017-11-15T20:31:23.416Z,35.27
2017-11-15T20:33:54.194Z,36.17
2017-11-15T20:36:22.812Z,35.47
2017-11-15T20:38:53.142Z,31.93
2017-11-15T20:41:25.564Z,32.53
2017-11-15T20:43:54.375Z,33.40
2017-11-15T20:46:22.755Z,33.60
2017-11-15T20:48:51.040Z,35.50
2017-11-15T20:51:20.904Z,32.67
2017-11-15T20:53:49.255Z,33.67
2017-11-15T20:56:17.551Z,32.27
2017-11-15T20:58:46.354Z,34.77
2017-11-15T21:01:14.807Z,33.43
2017-11-15T21:03:43.306Z,32.33
2017-11-15T21:06:11.624Z,31.43
2017-11-15T21:08:40.730Z,34.37
2017-11-15T21:11:10.696Z,33.63
2017-11-15T21:13:39.125Z,32.07
2017-11-15T21:16:09.150Z,34.67
2017-11-15T21:18:38.313Z,31.97
2017-11-15T21:21:06.917Z,32.63
2017-11-15T21:23:35.259Z,35.50
2017-11-15T21:26:03.711Z,44.73
2017-11-15T21:28:32.615Z,33.63
2017-11-15T21:31:02.043Z,37.63
2017-11-15T21:33:31.758Z,31.90
2017-11-15T21:36:00.518Z,33.60
2017-11-15T21:38:28.967Z,41.10
2017-11-15T21:41:00.773Z,38.27
2017-11-15T21:43:29.180Z,46.67
2017-11-15T21:45:57.707Z,46.70
2017-11-15T21:48:26.637Z,32.73
2017-11-15T21:50:55.082Z,34.70
2017-11-15T21:53:29.179Z,39.63
2017-11-15T21:55:59.014Z,32.33
2017-11-15T21:58:27.338Z,33.90
2017-11-15T22:00:57.244Z,31.80
2017-11-15T22:03:26.025Z,31.47
2017-11-15T22:05:54.564Z,31.93
2017-11-15T22:08:23.455Z,29.43
2017-11-15T22:10:55.143Z,30.60
2017-11-15T22:13:26.516Z,33.37
2017-11-15T22:15:55.930Z,31.87
2017-11-15T22:18:26.672Z,31.00
2017-11-15T22:20:55.234Z,43.30
2017-11-15T22:23:24.572Z,34.97
2017-11-15T22:25:54.325Z,35.97
2017-11-15T22:28:22.816Z,39.90
2017-11-15T22:30:52.344Z,34.90
2017-11-15T22:33:24.258Z,32.63
2017-11-15T22:35:55.243Z,35.60
2017-11-15T22:38:25.398Z,31.67
2017-11-15T22:40:57.265Z,50.07
2017-11-15T22:43:27.672Z,34.93
2017-11-15T22:45:56.538Z,42.37
2017-11-15T22:48:27.046Z,51.53
2017-11-15T22:50:57.536Z,51.87
2017-11-15T22:53:33.379Z,50.20
2017-11-15T22:56:02.602Z,46.10
2017-11-15T22:58:31.369Z,50.00
2017-11-15T23:01:01.181Z,49.53
2017-11-15T23:03:34.443Z,38.50
2017-11-15T23:06:04.521Z,52.67
2017-11-15T23:08:33.281Z,52.20
2017-11-15T23:11:02.812Z,53.53
2017-11-15T23:13:32.333Z,46.40
2017-11-15T23:16:01.679Z,40.37
2017-11-15T23:18:30.611Z,51.20
2017-11-15T23:20:58.981Z,51.37
2017-11-15T23:23:27.382Z,54.63
2017-11-15T23:25:56.785Z,35.23
2017-11-15T23:28:26.265Z,37.97
2017-11-15T23:30:55.294Z,50.67
2017-11-15T23:33:25.600Z,52.80
2017-11-15T23:35:54.416Z,46.87
2017-11-15T23:38:22.755Z,37.47
2017-11-15T23:40:51.334Z,31.10
2017-11-15T23:43:21.327Z,32.07
2017-11-15T23:45:49.750Z,40.70
2017-11-15T23:48:18.634Z,51.87
2017-11-15T23:50:47.901Z,50.67
2017-11-15T23:53:23.165Z,62.33
2017-11-15T23:55:51.510Z,61.53
2017-11-15T23:58:20.004Z,47.73
